sensor_id;sensor_type;location;lat;lon;timestamp;pressure;altitude;pressure_sealevel;temperature;humidity
50652;BME280;61429;52.086;5.240;2022-12-26T06:24:21;100872.0;;;10.4;85.83
50652;BME280;61429;52.086;5.240;2022-12-26T06:25:58;100874.0;;;10.47;85.5
50652;BME280;61429;52.086;5.240;2022-12-26T06:29:11;100874.0;;;10.23;86.21
50652;BME280;61429;52.086;5.240;2022-12-26T06:30:48;100877.0;;;10.37;85.86
50652;BME280;61429;52.086;5.240;2022-12-26T06:32:25;100878.0;;;10.43;85.65
50652;BME280;61429;52.086;5.240;2022-12-26T06:34:01;100875.0;;;10.38;85.54
50652;BME280;61429;52.086;5.240;2022-12-26T06:37:14;100886.0;;;10.11;86.62
50652;BME280;61429;52.086;5.240;2022-12-26T06:38:51;100883.0;;;10.3;85.87
50652;BME280;61429;52.086;5.240;2022-12-26T06:40:28;100883.0;;;10.15;86.74
50652;BME280;61429;52.086;5.240;2022-12-26T06:43:41;100881.0;;;9.97;87.4
50652;BME280;61429;52.086;5.240;2022-12-26T06:45:18;100881.0;;;9.98;87.5
50652;BME280;61429;52.086;5.240;2022-12-26T06:46:54;100889.0;;;10.05;87.42
50652;BME280;61429;52.086;5.240;2022-12-26T06:50:08;100891.0;;;10.14;86.99
50652;BME280;61429;52.086;5.240;2022-12-26T06:51:46;100887.0;;;9.98;87.74
50652;BME280;61429;52.086;5.240;2022-12-26T06:53:23;100887.0;;;10.18;87.08
50652;BME280;61429;52.086;5.240;2022-12-26T06:55:00;100886.0;;;10.23;86.99
50652;BME280;61429;52.086;5.240;2022-12-26T06:58:12;100886.0;;;10.22;86.34
50652;BME280;61429;52.086;5.240;2022-12-26T06:59:48;100876.0;;;10.31;86.1
50652;BME280;61429;52.086;5.240;2022-12-26T07:01:25;100877.0;;;10.23;86.14
50652;BME280;61429;52.086;5.240;2022-12-26T07:04:39;100882.0;;;10.46;85.67
50652;BME280;61429;52.086;5.240;2022-12-26T07:06:20;100883.0;;;10.47;85.55
50652;BME280;61429;52.086;5.240;2022-12-26T07:07:59;100882.0;;;10.45;85.47
50652;BME280;61429;52.086;5.240;2022-12-26T07:09:35;100882.0;;;10.41;85.82
50652;BME280;61429;52.086;5.240;2022-12-26T07:12:49;100875.0;;;10.27;86.07
50652;BME280;61429;52.086;5.240;2022-12-26T07:14:25;100883.0;;;10.5;85.29
50652;BME280;61429;52.086;5.240;2022-12-26T07:16:01;100877.0;;;10.32;85.99
50652;BME280;61429;52.086;5.240;2022-12-26T07:19:14;100877.0;;;10.48;85.07
50652;BME280;61429;52.086;5.240;2022-12-26T07:20:51;100872.0;;;10.48;84.83
50652;BME280;61429;52.086;5.240;2022-12-26T07:22:27;100877.0;;;10.53;84.75
50652;BME280;61429;52.086;5.240;2022-12-26T07:25:40;100880.0;;;10.37;85.21
50652;BME280;61429;52.086;5.240;2022-12-26T07:27:17;100888.0;;;10.23;85.43
50652;BME280;61429;52.086;5.240;2022-12-26T07:28:53;100886.0;;;10.11;85.96
50652;BME280;61429;52.086;5.240;2022-12-26T07:30:30;100878.0;;;10.26;85.53
50652;BME280;61429;52.086;5.240;2022-12-26T07:33:45;100871.0;;;10.35;85.01
50652;BME280;61429;52.086;5.240;2022-12-26T07:35:22;100870.0;;;10.23;85.44
50652;BME280;61429;52.086;5.240;2022-12-26T07:36:58;100869.0;;;10.28;85.23
50652;BME280;61429;52.086;5.240;2022-12-26T07:40:11;100876.0;;;10.33;85.23
50652;BME280;61429;52.086;5.240;2022-12-26T07:41:47;100875.0;;;10.27;85.35
50652;BME280;61429;52.086;5.240;2022-12-26T07:43:24;100877.0;;;10.33;85.27
50652;BME280;61429;52.086;5.240;2022-12-26T07:46:37;100885.0;;;10.32;85.11
50652;BME280;61429;52.086;5.240;2022-12-26T07:48:13;100883.0;;;10.34;85.3
50652;BME280;61429;52.086;5.240;2022-12-26T07:49:49;100884.0;;;10.46;84.67
50652;BME280;61429;52.086;5.240;2022-12-26T07:51:26;100890.0;;;10.45;84.75
50652;BME280;61429;52.086;5.240;2022-12-26T07:54:39;100892.0;;;10.39;85.04
50652;BME280;61429;52.086;5.240;2022-12-26T07:56:15;100885.0;;;10.3;85.49
50652;BME280;61429;52.086;5.240;2022-12-26T07:57:51;100890.0;;;10.43;85.15
50652;BME280;61429;52.086;5.240;2022-12-26T08:01:05;100891.0;;;10.54;84.71
50652;BME280;61429;52.086;5.240;2022-12-26T08:02:42;100885.0;;;10.56;84.52
50652;BME280;61429;52.086;5.240;2022-12-26T08:04:18;100884.0;;;10.51;84.43
50652;BME280;61429;52.086;5.240;2022-12-26T08:07:31;100895.0;;;10.34;85.46
50652;BME280;61429;52.086;5.240;2022-12-26T08:09:11;100890.0;;;10.41;85.44
50652;BME280;61429;52.086;5.240;2022-12-26T08:10:57;100885.0;;;10.31;86.2
50652;BME280;61429;52.086;5.240;2022-12-26T08:12:33;100884.0;;;10.27;86.43
50652;BME280;61429;52.086;5.240;2022-12-26T08:15:47;100891.0;;;10.27;86.53
50652;BME280;61429;52.086;5.240;2022-12-26T08:17:23;100895.0;;;10.35;86.63
50652;BME280;61429;52.086;5.240;2022-12-26T08:19:00;100893.0;;;10.44;86.19
50652;BME280;61429;52.086;5.240;2022-12-26T08:20:37;100903.0;;;10.35;86.63
50652;BME280;61429;52.086;5.240;2022-12-26T08:23:49;100906.0;;;10.4;86.38
50652;BME280;61429;52.086;5.240;2022-12-26T08:25:25;100907.0;;;10.43;86.33
50652;BME280;61429;52.086;5.240;2022-12-26T08:27:03;100910.0;;;10.53;85.95
50652;BME280;61429;52.086;5.240;2022-12-26T08:30:16;100913.0;;;10.44;86.31
50652;BME280;61429;52.086;5.240;2022-12-26T08:31:52;100910.0;;;10.52;86.0
50652;BME280;61429;52.086;5.240;2022-12-26T08:33:28;100914.0;;;10.52;86.0
50652;BME280;61429;52.086;5.240;2022-12-26T08:36:42;100920.0;;;10.65;85.43
50652;BME280;61429;52.086;5.240;2022-12-26T08:38:18;100914.0;;;10.75;85.17
50652;BME280;61429;52.086;5.240;2022-12-26T08:39:54;100906.0;;;10.64;85.2
50652;BME280;61429;52.086;5.240;2022-12-26T08:43:07;100921.0;;;10.6;85.93
50652;BME280;61429;52.086;5.240;2022-12-26T08:44:43;100913.0;;;10.62;85.67
50652;BME280;61429;52.086;5.240;2022-12-26T08:46:20;100914.0;;;10.64;85.52
50652;BME280;61429;52.086;5.240;2022-12-26T08:47:57;100925.0;;;10.62;85.27
50652;BME280;61429;52.086;5.240;2022-12-26T08:51:12;100918.0;;;10.68;84.91
50652;BME280;61429;52.086;5.240;2022-12-26T08:52:49;100938.0;;;10.73;84.86
50652;BME280;61429;52.086;5.240;2022-12-26T08:54:25;100943.0;;;10.77;85.01
50652;BME280;61429;52.086;5.240;2022-12-26T08:57:40;100946.0;;;10.59;85.57
50652;BME280;61429;52.086;5.240;2022-12-26T08:59:16;100957.0;;;10.63;85.52
50652;BME280;61429;52.086;5.240;2022-12-26T09:00:52;100961.0;;;10.52;86.0
50652;BME280;61429;52.086;5.240;2022-12-26T09:02:28;100972.0;;;10.61;85.94
50652;BME280;61429;52.086;5.240;2022-12-26T09:05:41;100959.0;;;10.64;85.48
50652;BME280;61429;52.086;5.240;2022-12-26T09:07:18;100971.0;;;10.63;85.32
50652;BME280;61429;52.086;5.240;2022-12-26T09:08:54;100976.0;;;10.61;84.98
50652;BME280;61429;52.086;5.240;2022-12-26T09:12:06;100971.0;;;10.37;85.24
50652;BME280;61429;52.086;5.240;2022-12-26T09:13:43;100984.0;;;10.37;85.59
50652;BME280;61429;52.086;5.240;2022-12-26T09:15:21;100989.0;;;10.62;84.8
50652;BME280;61429;52.086;5.240;2022-12-26T09:18:33;100991.0;;;10.52;85.77
50652;BME280;61429;52.086;5.240;2022-12-26T09:20:10;100995.0;;;10.39;86.34
50652;BME280;61429;52.086;5.240;2022-12-26T09:21:48;101012.0;;;10.23;87.66
50652;BME280;61429;52.086;5.240;2022-12-26T09:23:25;101017.0;;;10.31;88.63
50652;BME280;61429;52.086;5.240;2022-12-26T09:26:37;101030.0;;;10.49;88.29
50652;BME280;61429;52.086;5.240;2022-12-26T09:28:14;101034.0;;;10.37;88.57
50652;BME280;61429;52.086;5.240;2022-12-26T09:29:52;101043.0;;;10.45;88.57
50652;BME280;61429;52.086;5.240;2022-12-26T09:33:06;101049.0;;;10.3;89.19
50652;BME280;61429;52.086;5.240;2022-12-26T09:34:42;101058.0;;;10.46;88.58
50652;BME280;61429;52.086;5.240;2022-12-26T09:36:20;101051.0;;;10.29;87.99
50652;BME280;61429;52.086;5.240;2022-12-26T09:39:33;101063.0;;;10.06;87.36
50652;BME280;61429;52.086;5.240;2022-12-26T09:41:24;101067.0;;;10.05;87.86
50652;BME280;61429;52.086;5.240;2022-12-26T09:43:16;101065.0;;;10.23;87.25
50652;BME280;61429;52.086;5.240;2022-12-26T09:45:03;101069.0;;;10.06;87.57
50652;BME280;61429;52.086;5.240;2022-12-26T09:46:49;101073.0;;;9.94;87.58
50652;BME280;61429;52.086;5.240;2022-12-26T09:48:38;101102.0;;;9.71;88.28
50652;BME280;61429;52.086;5.240;2022-12-26T09:52:09;101112.0;;;9.39;87.36
50652;BME280;61429;52.086;5.240;2022-12-26T09:53:59;101127.0;;;8.99;84.95
50652;BME280;61429;52.086;5.240;2022-12-26T09:55:43;101137.0;;;8.57;83.08
50652;BME280;61429;52.086;5.240;2022-12-26T09:57:30;101110.0;;;8.49;82.73
50652;BME280;61429;52.086;5.240;2022-12-26T09:59:15;101140.0;;;8.4;82.72
50652;BME280;61429;52.086;5.240;2022-12-26T10:02:41;101143.0;;;8.42;82.46
50652;BME280;61429;52.086;5.240;2022-12-26T10:04:21;101161.0;;;8.64;81.95
50652;BME280;61429;52.086;5.240;2022-12-26T10:06:08;101155.0;;;8.44;82.06
50652;BME280;61429;52.086;5.240;2022-12-26T10:09:41;101166.0;;;8.2;82.32
50652;BME280;61429;52.086;5.240;2022-12-26T10:11:55;101173.0;;;8.19;82.14
50652;BME280;61429;52.086;5.240;2022-12-26T10:13:40;101175.0;;;8.01;82.65
50652;BME280;61429;52.086;5.240;2022-12-26T10:17:18;101172.0;;;8.05;82.82
50652;BME280;61429;52.086;5.240;2022-12-26T10:19:16;101185.0;;;8.05;82.32
50652;BME280;61429;52.086;5.240;2022-12-26T10:21:25;101186.0;;;8.05;82.89
50652;BME280;61429;52.086;5.240;2022-12-26T10:23:17;101201.0;;;8.01;82.52
50652;BME280;61429;52.086;5.240;2022-12-26T10:25:23;101207.0;;;8.06;82.49
50652;BME280;61429;52.086;5.240;2022-12-26T10:27:08;101211.0;;;7.99;81.89
50652;BME280;61429;52.086;5.240;2022-12-26T10:28:52;101222.0;;;7.82;81.87
50652;BME280;61429;52.086;5.240;2022-12-26T10:30:36;101213.0;;;7.87;81.49
50652;BME280;61429;52.086;5.240;2022-12-26T10:34:03;101218.0;;;7.95;80.38
50652;BME280;61429;52.086;5.240;2022-12-26T10:35:47;101216.0;;;8.01;80.05
50652;BME280;61429;52.086;5.240;2022-12-26T10:37:26;101220.0;;;8.08;80.03
50652;BME280;61429;52.086;5.240;2022-12-26T10:39:12;101226.0;;;7.87;79.91
50652;BME280;61429;52.086;5.240;2022-12-26T10:40:58;101225.0;;;7.84;80.27
50652;BME280;61429;52.086;5.240;2022-12-26T10:44:17;101225.0;;;7.85;79.49
50652;BME280;61429;52.086;5.240;2022-12-26T10:46:22;101225.0;;;7.83;80.0
50652;BME280;61429;52.086;5.240;2022-12-26T10:49:01;101240.0;;;7.88;80.42
50652;BME280;61429;52.086;5.240;2022-12-26T10:50:42;101228.0;;;7.88;79.48
50652;BME280;61429;52.086;5.240;2022-12-26T10:52:26;101230.0;;;7.82;79.17
50652;BME280;61429;52.086;5.240;2022-12-26T10:54:11;101239.0;;;7.89;79.13
50652;BME280;61429;52.086;5.240;2022-12-26T10:55:48;101255.0;;;7.8;78.47
50652;BME280;61429;52.086;5.240;2022-12-26T10:59:12;101245.0;;;7.96;78.33
50652;BME280;61429;52.086;5.240;2022-12-26T11:00:52;101251.0;;;8.05;78.3
50652;BME280;61429;52.086;5.240;2022-12-26T11:02:30;101244.0;;;8.2;77.58
50652;BME280;61429;52.086;5.240;2022-12-26T11:04:14;101251.0;;;8.07;77.73
50652;BME280;61429;52.086;5.240;2022-12-26T11:05:55;101243.0;;;8.23;77.8
50652;BME280;61429;52.086;5.240;2022-12-26T11:09:33;101235.0;;;8.14;76.83
50652;BME280;61429;52.086;5.240;2022-12-26T11:11:19;101248.0;;;7.88;77.5
50652;BME280;61429;52.086;5.240;2022-12-26T11:12:59;101250.0;;;7.84;78.19
50652;BME280;61429;52.086;5.240;2022-12-26T11:14:38;101262.0;;;7.99;78.36
50652;BME280;61429;52.086;5.240;2022-12-26T11:18:16;101268.0;;;7.86;78.19
50652;BME280;61429;52.086;5.240;2022-12-26T11:20:11;101280.0;;;7.99;77.33
50652;BME280;61429;52.086;5.240;2022-12-26T11:22:19;101287.0;;;8.2;77.49
50652;BME280;61429;52.086;5.240;2022-12-26T11:24:15;101301.0;;;8.09;77.52
50652;BME280;61429;52.086;5.240;2022-12-26T11:25:53;101285.0;;;8.07;76.72
50652;BME280;61429;52.086;5.240;2022-12-26T11:27:30;101283.0;;;8.0;76.92
50652;BME280;61429;52.086;5.240;2022-12-26T11:29:11;101290.0;;;8.0;77.42
50652;BME280;61429;52.086;5.240;2022-12-26T11:32:26;101295.0;;;7.83;76.52
50652;BME280;61429;52.086;5.240;2022-12-26T11:34:06;101293.0;;;7.9;76.69
50652;BME280;61429;52.086;5.240;2022-12-26T11:35:47;101305.0;;;8.08;76.05
50652;BME280;61429;52.086;5.240;2022-12-26T11:37:26;101307.0;;;7.89;75.2
50652;BME280;61429;52.086;5.240;2022-12-26T11:39:15;101307.0;;;8.05;74.63
50652;BME280;61429;52.086;5.240;2022-12-26T11:42:30;101308.0;;;7.98;73.92
50652;BME280;61429;52.086;5.240;2022-12-26T11:44:24;101308.0;;;8.09;73.72
50652;BME280;61429;52.086;5.240;2022-12-26T11:46:01;101314.0;;;8.01;73.42
50652;BME280;61429;52.086;5.240;2022-12-26T11:47:43;101316.0;;;8.15;73.62
50652;BME280;61429;52.086;5.240;2022-12-26T11:51:03;101319.0;;;8.31;72.11
50652;BME280;61429;52.086;5.240;2022-12-26T11:52:42;101319.0;;;8.2;73.02
50652;BME280;61429;52.086;5.240;2022-12-26T11:54:28;101321.0;;;8.17;72.92
50652;BME280;61429;52.086;5.240;2022-12-26T11:56:06;101319.0;;;8.48;72.81
50652;BME280;61429;52.086;5.240;2022-12-26T11:59:31;101324.0;;;8.73;72.03
50652;BME280;61429;52.086;5.240;2022-12-26T12:01:14;101330.0;;;8.06;71.88
50652;BME280;61429;52.086;5.240;2022-12-26T12:02:51;101331.0;;;8.15;71.73
50652;BME280;61429;52.086;5.240;2022-12-26T12:04:27;101330.0;;;8.26;71.88
50652;BME280;61429;52.086;5.240;2022-12-26T12:08:14;101335.0;;;8.28;71.83
50652;BME280;61429;52.086;5.240;2022-12-26T12:10:02;101337.0;;;7.97;70.61
50652;BME280;61429;52.086;5.240;2022-12-26T12:12:02;101330.0;;;7.96;70.08
50652;BME280;61429;52.086;5.240;2022-12-26T12:13:54;101325.0;;;7.88;69.75
50652;BME280;61429;52.086;5.240;2022-12-26T12:15:41;101327.0;;;7.88;70.17
50652;BME280;61429;52.086;5.240;2022-12-26T12:17:23;101332.0;;;7.98;69.77
50652;BME280;61429;52.086;5.240;2022-12-26T12:19:15;101331.0;;;8.2;69.55
50652;BME280;61429;52.086;5.240;2022-12-26T12:22:59;101332.0;;;8.2;68.08
50652;BME280;61429;52.086;5.240;2022-12-26T12:24:59;101330.0;;;7.85;68.39
50652;BME280;61429;52.086;5.240;2022-12-26T12:27:00;101338.0;;;7.91;68.69
50652;BME280;61429;52.086;5.240;2022-12-26T12:29:07;101343.0;;;7.78;68.69
50652;BME280;61429;52.086;5.240;2022-12-26T12:32:41;101344.0;;;7.7;68.5
50652;BME280;61429;52.086;5.240;2022-12-26T12:34:31;101346.0;;;7.85;68.97
50652;BME280;61429;52.086;5.240;2022-12-26T12:36:21;101351.0;;;7.76;67.92
50652;BME280;61429;52.086;5.240;2022-12-26T12:38:15;101345.0;;;7.82;68.0
50652;BME280;61429;52.086;5.240;2022-12-26T12:40:12;101352.0;;;8.02;66.97
50652;BME280;61429;52.086;5.240;2022-12-26T12:42:08;101349.0;;;7.89;66.25
50652;BME280;61429;52.086;5.240;2022-12-26T12:45:48;101352.0;;;7.78;66.36
50652;BME280;61429;52.086;5.240;2022-12-26T12:47:36;101359.0;;;7.67;66.47
50652;BME280;61429;52.086;5.240;2022-12-26T12:49:31;101358.0;;;7.65;66.08
50652;BME280;61429;52.086;5.240;2022-12-26T12:51:22;101353.0;;;7.76;65.66
50652;BME280;61429;52.086;5.240;2022-12-26T12:53:08;101363.0;;;7.87;65.63
50652;BME280;61429;52.086;5.240;2022-12-26T12:56:24;101362.0;;;8.02;65.02
50652;BME280;61429;52.086;5.240;2022-12-26T12:58:08;101366.0;;;8.17;65.02
50652;BME280;61429;52.086;5.240;2022-12-26T12:59:59;101367.0;;;7.74;64.7
50652;BME280;61429;52.086;5.240;2022-12-26T13:01:49;101375.0;;;7.77;64.97
50652;BME280;61429;52.086;5.240;2022-12-26T13:03:32;101377.0;;;7.78;64.59
50652;BME280;61429;52.086;5.240;2022-12-26T13:05:24;101374.0;;;7.84;64.83
50652;BME280;61429;52.086;5.240;2022-12-26T13:07:04;101370.0;;;7.75;64.2
50652;BME280;61429;52.086;5.240;2022-12-26T13:10:29;101373.0;;;7.75;65.0
50652;BME280;61429;52.086;5.240;2022-12-26T13:12:13;101376.0;;;7.7;64.91
50652;BME280;61429;52.086;5.240;2022-12-26T13:13:55;101373.0;;;7.76;64.05
50652;BME280;61429;52.086;5.240;2022-12-26T13:15:37;101381.0;;;8.01;64.12
50652;BME280;61429;52.086;5.240;2022-12-26T13:19:00;101380.0;;;7.74;64.17
50652;BME280;61429;52.086;5.240;2022-12-26T13:20:41;101381.0;;;7.64;64.19
50652;BME280;61429;52.086;5.240;2022-12-26T13:22:24;101380.0;;;7.67;63.81
50652;BME280;61429;52.086;5.240;2022-12-26T13:24:04;101387.0;;;7.61;64.11
50652;BME280;61429;52.086;5.240;2022-12-26T13:25:52;101380.0;;;7.55;63.91
50652;BME280;61429;52.086;5.240;2022-12-26T13:29:33;101381.0;;;7.5;64.22
50652;BME280;61429;52.086;5.240;2022-12-26T13:31:12;101381.0;;;7.51;63.82
50652;BME280;61429;52.086;5.240;2022-12-26T13:32:54;101381.0;;;7.59;63.77
50652;BME280;61429;52.086;5.240;2022-12-26T13:34:31;101380.0;;;7.5;63.06
50652;BME280;61429;52.086;5.240;2022-12-26T13:37:54;101388.0;;;7.33;64.13
50652;BME280;61429;52.086;5.240;2022-12-26T13:39:35;101387.0;;;7.47;64.66
50652;BME280;61429;52.086;5.240;2022-12-26T13:41:16;101399.0;;;7.42;65.69
50652;BME280;61429;52.086;5.240;2022-12-26T13:42:54;101400.0;;;7.2;66.83
50652;BME280;61429;52.086;5.240;2022-12-26T13:46:35;101398.0;;;7.2;67.55
50652;BME280;61429;52.086;5.240;2022-12-26T13:48:53;101401.0;;;7.31;67.72
50652;BME280;61429;52.086;5.240;2022-12-26T13:51:53;101405.0;;;7.13;67.7
50652;BME280;61429;52.086;5.240;2022-12-26T13:53:32;101410.0;;;7.27;68.55
50652;BME280;61429;52.086;5.240;2022-12-26T13:55:31;101415.0;;;7.27;67.94
50652;BME280;61429;52.086;5.240;2022-12-26T13:57:31;101412.0;;;7.18;67.27
50652;BME280;61429;52.086;5.240;2022-12-26T14:01:02;101414.0;;;7.14;67.69
50652;BME280;61429;52.086;5.240;2022-12-26T14:04:19;101413.0;;;7.11;67.49
50652;BME280;61429;52.086;5.240;2022-12-26T14:06:44;101428.0;;;7.08;66.66
50652;BME280;61429;52.086;5.240;2022-12-26T14:08:35;101428.0;;;7.08;67.22
50652;BME280;61429;52.086;5.240;2022-12-26T14:10:18;101431.0;;;7.05;67.63
50652;BME280;61429;52.086;5.240;2022-12-26T14:12:10;101434.0;;;7.18;67.94
50652;BME280;61429;52.086;5.240;2022-12-26T14:15:11;101434.0;;;7.19;67.37
50652;BME280;61429;52.086;5.240;2022-12-26T14:17:00;101434.0;;;6.96;67.06
50652;BME280;61429;52.086;5.240;2022-12-26T14:18:52;101443.0;;;7.11;66.87
50652;BME280;61429;52.086;5.240;2022-12-26T14:20:41;101440.0;;;7.08;66.47
50652;BME280;61429;52.086;5.240;2022-12-26T14:22:23;101446.0;;;7.26;65.87
50652;BME280;61429;52.086;5.240;2022-12-26T14:26:18;101459.0;;;7.25;65.83
50652;BME280;61429;52.086;5.240;2022-12-26T14:28:10;101461.0;;;7.16;64.58
50652;BME280;61429;52.086;5.240;2022-12-26T14:30:05;101469.0;;;6.99;64.85
50652;BME280;61429;52.086;5.240;2022-12-26T14:31:49;101470.0;;;7.08;64.2
50652;BME280;61429;52.086;5.240;2022-12-26T14:33:35;101473.0;;;7.16;63.87
50652;BME280;61429;52.086;5.240;2022-12-26T14:35:30;101474.0;;;7.35;62.9
50652;BME280;61429;52.086;5.240;2022-12-26T14:37:15;101476.0;;;7.28;62.85
50652;BME280;61429;52.086;5.240;2022-12-26T14:41:00;101484.0;;;7.42;62.85
50652;BME280;61429;52.086;5.240;2022-12-26T14:43:04;101491.0;;;7.18;62.75
50652;BME280;61429;52.086;5.240;2022-12-26T14:45:42;101492.0;;;7.18;62.7
50652;BME280;61429;52.086;5.240;2022-12-26T14:47:35;101484.0;;;7.29;63.23
50652;BME280;61429;52.086;5.240;2022-12-26T14:51:27;101490.0;;;7.23;63.73
50652;BME280;61429;52.086;5.240;2022-12-26T14:54:15;101492.0;;;7.22;63.58
50652;BME280;61429;52.086;5.240;2022-12-26T14:55:53;101497.0;;;7.33;64.08
50652;BME280;61429;52.086;5.240;2022-12-26T14:59:27;101505.0;;;7.25;64.38
50652;BME280;61429;52.086;5.240;2022-12-26T15:02:23;101501.0;;;7.33;64.85
50652;BME280;61429;52.086;5.240;2022-12-26T15:04:15;101509.0;;;7.23;64.55
50652;BME280;61429;52.086;5.240;2022-12-26T15:06:15;101516.0;;;7.11;65.42
50652;BME280;61429;52.086;5.240;2022-12-26T15:08:34;101510.0;;;7.07;65.34
50652;BME280;61429;52.086;5.240;2022-12-26T15:17:07;101525.0;;;7.02;65.91
50652;BME280;61429;52.086;5.240;2022-12-26T15:19:05;101523.0;;;7.34;65.16
50652;BME280;61429;52.086;5.240;2022-12-26T15:21:30;101530.0;;;7.32;65.03
50652;BME280;61429;52.086;5.240;2022-12-26T15:27:10;101528.0;;;7.35;64.78
50652;BME280;61429;52.086;5.240;2022-12-26T15:30:12;101528.0;;;7.6;63.95
50652;BME280;61429;52.086;5.240;2022-12-26T15:31:57;101536.0;;;7.4;64.05
50652;BME280;61429;52.086;5.240;2022-12-26T15:33:39;101537.0;;;7.62;63.35
50652;BME280;61429;52.086;5.240;2022-12-26T15:37:05;101539.0;;;7.38;63.68
50652;BME280;61429;52.086;5.240;2022-12-26T15:38:54;101542.0;;;7.4;63.95
50652;BME280;61429;52.086;5.240;2022-12-26T15:40:36;101545.0;;;7.46;63.78
50652;BME280;61429;52.086;5.240;2022-12-26T15:42:28;101555.0;;;7.35;64.41
50652;BME280;61429;52.086;5.240;2022-12-26T15:44:18;101551.0;;;7.71;63.54
50652;BME280;61429;52.086;5.240;2022-12-26T15:46:08;101551.0;;;7.65;63.38
50652;BME280;61429;52.086;5.240;2022-12-26T15:49:45;101544.0;;;7.62;63.34
50652;BME280;61429;52.086;5.240;2022-12-26T15:51:30;101555.0;;;7.64;63.33
50652;BME280;61429;52.086;5.240;2022-12-26T15:53:23;101557.0;;;7.71;63.1
50652;BME280;61429;52.086;5.240;2022-12-26T15:55:14;101563.0;;;7.67;63.38
50652;BME280;61429;52.086;5.240;2022-12-26T15:57:38;101566.0;;;7.66;63.23
50652;BME280;61429;52.086;5.240;2022-12-26T15:59:52;101567.0;;;7.51;63.63
50652;BME280;61429;52.086;5.240;2022-12-26T16:01:58;101571.0;;;7.62;63.57
50652;BME280;61429;52.086;5.240;2022-12-26T16:03:41;101570.0;;;7.53;63.72
50652;BME280;61429;52.086;5.240;2022-12-26T16:05:32;101576.0;;;7.54;63.67
50652;BME280;61429;52.086;5.240;2022-12-26T16:07:38;101580.0;;;7.52;63.72
50652;BME280;61429;52.086;5.240;2022-12-26T16:09:26;101578.0;;;7.31;64.23
50652;BME280;61429;52.086;5.240;2022-12-26T16:11:18;101581.0;;;7.33;64.33
50652;BME280;61429;52.086;5.240;2022-12-26T16:14:38;101580.0;;;7.45;64.27
50652;BME280;61429;52.086;5.240;2022-12-26T16:16:23;101582.0;;;7.26;64.81
50652;BME280;61429;52.086;5.240;2022-12-26T16:18:12;101584.0;;;7.36;64.27
50652;BME280;61429;52.086;5.240;2022-12-26T16:19:55;101586.0;;;7.37;64.81
50652;BME280;61429;52.086;5.240;2022-12-26T16:21:32;101585.0;;;7.45;64.08
50652;BME280;61429;52.086;5.240;2022-12-26T16:24:53;101584.0;;;7.42;64.35
50652;BME280;61429;52.086;5.240;2022-12-26T16:26:32;101581.0;;;7.38;64.47
50652;BME280;61429;52.086;5.240;2022-12-26T16:28:12;101583.0;;;7.27;64.63
50652;BME280;61429;52.086;5.240;2022-12-26T16:31:31;101586.0;;;7.18;65.11
50652;BME280;61429;52.086;5.240;2022-12-26T16:33:07;101595.0;;;7.29;64.75
50652;BME280;61429;52.086;5.240;2022-12-26T16:34:47;101599.0;;;7.28;65.02
50652;BME280;61429;52.086;5.240;2022-12-26T16:36:25;101600.0;;;7.26;65.27
50652;BME280;61429;52.086;5.240;2022-12-26T16:39:43;101609.0;;;7.07;65.83
50652;BME280;61429;52.086;5.240;2022-12-26T16:41:22;101608.0;;;7.24;65.45
50652;BME280;61429;52.086;5.240;2022-12-26T16:43:02;101606.0;;;7.17;65.95
50652;BME280;61429;52.086;5.240;2022-12-26T16:44:40;101608.0;;;7.16;66.13
50652;BME280;61429;52.086;5.240;2022-12-26T16:47:54;101609.0;;;7.21;65.72
50652;BME280;61429;52.086;5.240;2022-12-26T16:49:32;101610.0;;;6.98;66.44
50652;BME280;61429;52.086;5.240;2022-12-26T16:51:31;101609.0;;;6.88;66.74
50652;BME280;61429;52.086;5.240;2022-12-26T16:53:20;101618.0;;;7.12;66.37
50652;BME280;61429;52.086;5.240;2022-12-26T16:55:22;101618.0;;;6.92;66.8
50652;BME280;61429;52.086;5.240;2022-12-26T16:58:44;101626.0;;;7.02;66.94
50652;BME280;61429;52.086;5.240;2022-12-26T17:00:22;101620.0;;;6.92;67.06
50652;BME280;61429;52.086;5.240;2022-12-26T17:01:59;101622.0;;;7.0;66.94
50652;BME280;61429;52.086;5.240;2022-12-26T17:03:40;101625.0;;;6.99;67.09
50652;BME280;61429;52.086;5.240;2022-12-26T17:07:07;101628.0;;;6.87;67.2
50652;BME280;61429;52.086;5.240;2022-12-26T17:08:46;101630.0;;;6.72;67.45
50652;BME280;61429;52.086;5.240;2022-12-26T17:10:25;101633.0;;;6.84;67.8
50652;BME280;61429;52.086;5.240;2022-12-26T17:12:07;101637.0;;;6.65;67.83
50652;BME280;61429;52.086;5.240;2022-12-26T17:13:53;101638.0;;;6.69;67.85
50652;BME280;61429;52.086;5.240;2022-12-26T17:17:28;101640.0;;;6.65;68.02
50652;BME280;61429;52.086;5.240;2022-12-26T17:19:09;101638.0;;;6.65;68.08
50652;BME280;61429;52.086;5.240;2022-12-26T17:20:51;101636.0;;;6.57;68.27
50652;BME280;61429;52.086;5.240;2022-12-26T17:22:29;101636.0;;;6.55;68.31
50652;BME280;61429;52.086;5.240;2022-12-26T17:26:17;101631.0;;;6.6;68.05
50652;BME280;61429;52.086;5.240;2022-12-26T17:28:27;101637.0;;;6.47;68.62
50652;BME280;61429;52.086;5.240;2022-12-26T17:30:20;101643.0;;;6.43;68.61
50652;BME280;61429;52.086;5.240;2022-12-26T17:32:00;101641.0;;;6.55;68.53
50652;BME280;61429;52.086;5.240;2022-12-26T17:33:41;101646.0;;;6.35;69.22
50652;BME280;61429;52.086;5.240;2022-12-26T17:35:19;101649.0;;;6.32;69.27
50652;BME280;61429;52.086;5.240;2022-12-26T17:37:01;101652.0;;;6.25;69.55
50652;BME280;61429;52.086;5.240;2022-12-26T17:40:21;101648.0;;;6.52;68.92
50652;BME280;61429;52.086;5.240;2022-12-26T17:42:00;101653.0;;;6.33;69.22
50652;BME280;61429;52.086;5.240;2022-12-26T17:43:38;101652.0;;;6.37;69.16
50652;BME280;61429;52.086;5.240;2022-12-26T17:45:16;101650.0;;;6.19;69.91
50652;BME280;61429;52.086;5.240;2022-12-26T17:48:30;101645.0;;;6.45;69.11
50652;BME280;61429;52.086;5.240;2022-12-26T17:50:07;101651.0;;;6.52;68.91
50652;BME280;61429;52.086;5.240;2022-12-26T17:51:43;101649.0;;;6.47;68.97
50652;BME280;61429;52.086;5.240;2022-12-26T17:55:03;101655.0;;;6.49;69.41
50652;BME280;61429;52.086;5.240;2022-12-26T17:56:40;101656.0;;;6.52;69.11
50652;BME280;61429;52.086;5.240;2022-12-26T17:58:16;101659.0;;;6.53;69.12
50652;BME280;61429;52.086;5.240;2022-12-26T18:01:30;101666.0;;;6.53;69.09